createdAt,value
2022-10-26T00:00:52.359Z,68.80
2022-10-26T00:03:19.603Z,76.10
2022-10-26T00:05:46.657Z,74.00
2022-10-26T00:08:13.487Z,72.65
2022-10-26T00:10:40.604Z,73.15
2022-10-26T00:13:12.315Z,64.95
2022-10-26T00:15:42.788Z,67.70
2022-10-26T00:18:10.168Z,59.97
2022-10-26T00:20:36.874Z,67.18
2022-10-26T00:23:03.567Z,75.18
2022-10-26T00:25:30.141Z,61.25
2022-10-26T00:27:56.759Z,71.28
2022-10-26T00:30:23.535Z,68.72
2022-10-26T00:32:50.056Z,70.20
2022-10-26T00:35:23.055Z,76.93
2022-10-26T00:37:56.442Z,70.00
2022-10-26T00:40:27.971Z,61.80
2022-10-26T00:42:54.548Z,61.28
2022-10-26T00:45:25.022Z,63.90
2022-10-26T00:48:10.031Z,63.75
2022-10-26T00:50:42.690Z,57.53
2022-10-26T00:53:11.284Z,54.70
2022-10-26T00:55:42.484Z,56.75
2022-10-26T00:58:10.472Z,69.33
2022-10-26T01:00:37.763Z,52.45
2022-10-26T01:03:09.616Z,70.57
2022-10-26T01:05:40.099Z,51.20
2022-10-26T01:08:08.659Z,50.25
2022-10-26T01:10:37.833Z,55.00
2022-10-26T01:13:05.586Z,48.70
2022-10-26T01:16:21.767Z,53.03
2022-10-26T01:18:59.897Z,56.53
2022-10-26T01:21:54.250Z,55.38
2022-10-26T01:24:52.985Z,48.65
2022-10-26T01:27:30.664Z,47.72
2022-10-26T01:30:19.828Z,51.10
2022-10-26T01:33:02.596Z,62.67
2022-10-26T01:35:34.369Z,49.33
2022-10-26T01:38:11.049Z,52.60
2022-10-26T01:40:50.045Z,54.72
2022-10-26T01:43:18.420Z,59.40
2022-10-26T01:45:48.029Z,54.10
2022-10-26T01:48:19.063Z,54.45
2022-10-26T01:50:48.018Z,57.63
2022-10-26T01:53:15.973Z,48.35
2022-10-26T01:55:49.380Z,54.78
2022-10-26T01:58:43.275Z,50.22
2022-10-26T02:01:12.743Z,51.50
2022-10-26T02:03:39.331Z,55.47
2022-10-26T02:06:16.880Z,45.90
2022-10-26T02:08:58.208Z,55.35
2022-10-26T02:11:37.676Z,43.28
2022-10-26T02:14:18.347Z,55.17
2022-10-26T02:16:54.119Z,50.08
2022-10-26T02:19:33.112Z,44.75
2022-10-26T02:22:14.459Z,48.88
2022-10-26T02:24:42.577Z,45.27
2022-10-26T02:27:15.961Z,52.72
2022-10-26T02:29:44.352Z,42.75
2022-10-26T02:32:12.064Z,47.83
2022-10-26T02:34:44.334Z,48.60
2022-10-26T02:37:13.546Z,43.35
2022-10-26T02:39:41.789Z,46.15
2022-10-26T02:42:09.427Z,51.63
2022-10-26T02:44:47.344Z,50.05
2022-10-26T02:47:14.447Z,49.75
2022-10-26T02:49:41.211Z,45.35
2022-10-26T02:52:15.529Z,55.88
2022-10-26T02:54:50.017Z,54.33
2022-10-26T02:57:24.721Z,67.63
2022-10-26T02:59:52.795Z,73.47
2022-10-26T03:02:20.656Z,78.20
2022-10-26T03:04:50.101Z,75.97
2022-10-26T03:07:24.269Z,78.30
2022-10-26T03:09:51.688Z,89.80
2022-10-26T03:14:33.218Z,119.85
2022-10-26T03:16:59.972Z,149.18
2022-10-26T03:19:26.506Z,171.10
2022-10-26T03:24:07.364Z,100.63
2022-10-26T03:26:33.996Z,69.15
2022-10-26T03:29:00.517Z,77.80
2022-10-26T03:31:27.408Z,75.05
2022-10-26T03:33:53.890Z,88.25
2022-10-26T03:36:20.512Z,78.13
2022-10-26T03:38:47.028Z,78.07
2022-10-26T03:41:13.556Z,85.22
2022-10-26T03:43:40.087Z,96.65
2022-10-26T03:46:06.861Z,106.90
2022-10-26T03:48:33.344Z,114.88
2022-10-26T03:50:59.987Z,85.57
2022-10-26T03:53:27.101Z,85.03
2022-10-26T03:55:53.684Z,79.75
2022-10-26T03:58:20.292Z,74.25
2022-10-26T04:00:47.792Z,71.65
2022-10-26T04:03:14.285Z,76.40
2022-10-26T04:05:40.961Z,160.93
2022-10-26T04:08:08.863Z,133.32
2022-10-26T04:10:35.568Z,85.07
2022-10-26T04:13:02.149Z,156.93
2022-10-26T04:15:29.255Z,91.50
2022-10-26T04:18:00.424Z,100.05
2022-10-26T04:20:28.604Z,138.53
2022-10-26T04:23:04.249Z,80.43
2022-10-26T04:25:33.235Z,79.13
2022-10-26T04:28:03.261Z,86.68
2022-10-26T04:30:30.564Z,89.35
2022-10-26T04:32:57.083Z,93.35
2022-10-26T04:35:23.946Z,101.18
2022-10-26T04:37:50.525Z,214.95
2022-10-26T04:40:17.112Z,155.13
2022-10-26T04:42:48.104Z,167.18
2022-10-26T04:45:16.262Z,219.02
2022-10-26T04:47:43.069Z,242.18
2022-10-26T04:50:11.553Z,161.80
2022-10-26T04:52:38.345Z,154.60
2022-10-26T04:55:06.316Z,123.93
2022-10-26T04:57:33.736Z,199.90
2022-10-26T05:00:01.373Z,169.35
2022-10-26T05:02:29.201Z,172.88
2022-10-26T05:04:55.921Z,134.07
2022-10-26T05:07:22.566Z,143.55
2022-10-26T05:09:49.136Z,103.60
2022-10-26T05:12:15.766Z,111.35
2022-10-26T05:14:42.451Z,113.20
2022-10-26T05:17:08.937Z,76.57
2022-10-26T05:19:35.484Z,76.95
2022-10-26T05:22:02.041Z,80.45
2022-10-26T05:24:28.571Z,69.30
2022-10-26T05:26:55.246Z,103.20
2022-10-26T05:29:21.916Z,84.38
2022-10-26T05:31:48.396Z,86.75
2022-10-26T05:34:14.952Z,86.88
2022-10-26T05:36:41.910Z,175.93
2022-10-26T05:39:08.500Z,104.75
2022-10-26T05:41:34.990Z,87.50
2022-10-26T05:44:01.660Z,105.22
2022-10-26T05:46:28.176Z,107.93
2022-10-26T05:48:54.767Z,91.55
2022-10-26T05:51:21.364Z,149.55
2022-10-26T05:53:48.539Z,213.23
2022-10-26T05:56:20.970Z,236.10
2022-10-26T05:58:48.723Z,113.15
2022-10-26T06:01:46.340Z,85.82
2022-10-26T06:04:36.052Z,88.28
2022-10-26T06:07:03.291Z,86.32
2022-10-26T06:09:30.113Z,89.40
2022-10-26T06:11:56.996Z,91.82
2022-10-26T06:14:23.717Z,81.68
2022-10-26T06:16:50.207Z,92.20
2022-10-26T06:19:54.845Z,87.47
2022-10-26T06:22:32.793Z,84.07
2022-10-26T06:25:30.483Z,83.05
2022-10-26T06:28:19.510Z,81.18
2022-10-26T06:30:46.180Z,90.45
2022-10-26T06:33:24.896Z,90.47
2022-10-26T06:36:07.628Z,87.45
2022-10-26T06:38:36.231Z,98.63
2022-10-26T06:41:03.649Z,89.97
2022-10-26T06:43:34.202Z,93.40
2022-10-26T06:46:09.976Z,91.10
2022-10-26T06:48:59.189Z,108.18
2022-10-26T06:51:27.568Z,92.93
2022-10-26T06:54:06.901Z,118.30
2022-10-26T06:56:34.112Z,103.35
2022-10-26T06:59:08.212Z,104.50
2022-10-26T07:01:35.060Z,102.88
2022-10-26T07:04:01.708Z,103.78
2022-10-26T07:06:28.289Z,108.60
2022-10-26T07:08:54.960Z,95.57
2022-10-26T07:11:21.647Z,102.38
2022-10-26T07:13:49.987Z,96.43
2022-10-26T07:16:16.584Z,106.90
2022-10-26T07:18:43.094Z,99.70
2022-10-26T07:21:10.510Z,92.43
2022-10-26T07:23:37.039Z,134.73
2022-10-26T07:26:03.664Z,130.80
2022-10-26T07:28:30.393Z,110.50
2022-10-26T07:30:58.460Z,101.00
2022-10-26T07:33:24.974Z,102.65
2022-10-26T07:35:52.991Z,105.10
2022-10-26T07:38:19.872Z,106.15
2022-10-26T07:40:46.740Z,102.03
2022-10-26T07:43:13.392Z,98.70
2022-10-26T07:45:40.674Z,107.32
2022-10-26T07:48:07.586Z,102.20
2022-10-26T07:50:34.202Z,101.72
2022-10-26T07:53:00.760Z,94.40
2022-10-26T07:55:28.190Z,84.03
2022-10-26T07:57:55.867Z,89.15
2022-10-26T08:00:23.008Z,85.93
2022-10-26T08:02:49.527Z,82.85
2022-10-26T08:05:16.298Z,84.10
2022-10-26T08:07:44.630Z,68.85
2022-10-26T08:12:43.565Z,81.68
2022-10-26T08:15:10.524Z,82.30
2022-10-26T08:17:37.066Z,71.50
2022-10-26T08:20:03.959Z,67.80
2022-10-26T08:24:58.679Z,59.45
2022-10-26T08:27:25.584Z,61.47
2022-10-26T08:32:06.880Z,62.67
2022-10-26T08:34:33.538Z,52.30
2022-10-26T08:37:00.094Z,58.95
2022-10-26T08:39:28.541Z,61.15
2022-10-26T08:42:11.376Z,55.97
2022-10-26T08:44:47.829Z,56.63
2022-10-26T08:47:28.569Z,54.20
2022-10-26T08:50:03.204Z,55.45
2022-10-26T08:52:38.537Z,55.88
2022-10-26T08:55:11.833Z,49.65
2022-10-26T08:57:41.700Z,63.35
2022-10-26T09:00:22.629Z,54.67
2022-10-26T09:02:53.496Z,44.72
2022-10-26T09:05:42.112Z,47.63
2022-10-26T09:08:21.293Z,44.17
2022-10-26T09:11:06.830Z,38.63
2022-10-26T09:14:04.083Z,40.55
2022-10-26T09:16:59.636Z,60.28
2022-10-26T09:20:07.893Z,33.83
2022-10-26T09:22:57.954Z,37.35
2022-10-26T09:25:29.617Z,31.10
2022-10-26T09:28:01.550Z,43.65
2022-10-26T09:30:30.238Z,40.22
2022-10-26T09:33:02.429Z,52.03
2022-10-26T09:36:13.231Z,39.53
2022-10-26T09:39:01.299Z,31.92
2022-10-26T09:41:45.392Z,33.80
2022-10-26T09:44:20.430Z,34.63
2022-10-26T09:47:36.797Z,25.70
2022-10-26T09:50:20.265Z,28.70
2022-10-26T09:52:47.464Z,29.38
2022-10-26T09:55:14.983Z,26.42
2022-10-26T09:57:45.592Z,25.10
2022-10-26T10:00:17.621Z,39.95
2022-10-26T10:02:47.383Z,25.70
2022-10-26T10:05:50.382Z,26.60
2022-10-26T10:08:22.833Z,21.65
2022-10-26T10:11:13.794Z,21.30
2022-10-26T10:13:43.274Z,23.38
2022-10-26T10:16:21.987Z,22.65
2022-10-26T10:19:00.342Z,27.75
2022-10-26T10:21:34.909Z,12.73
2022-10-26T10:24:01.671Z,17.13
2022-10-26T10:26:28.285Z,11.60
2022-10-26T10:29:02.566Z,8.07
2022-10-26T10:31:33.716Z,13.77
2022-10-26T10:34:00.513Z,14.00
2022-10-26T10:36:30.136Z,16.88
2022-10-26T10:38:56.857Z,17.33
2022-10-26T10:41:32.474Z,12.48
2022-10-26T10:44:29.807Z,15.60
2022-10-26T10:47:06.789Z,6.38
2022-10-26T10:49:34.156Z,9.18
2022-10-26T10:52:00.708Z,17.83
2022-10-26T10:54:34.494Z,9.90
2022-10-26T10:57:01.003Z,12.00
2022-10-26T10:59:40.192Z,7.65
2022-10-26T11:02:09.883Z,7.78
2022-10-26T11:05:13.801Z,12.25
2022-10-26T11:08:03.381Z,12.68
2022-10-26T11:10:38.344Z,8.98
2022-10-26T11:13:17.588Z,10.25
2022-10-26T11:15:48.645Z,9.60
2022-10-26T11:18:48.892Z,6.53
2022-10-26T11:21:31.085Z,7.38
2022-10-26T11:24:10.859Z,9.25
2022-10-26T11:26:46.215Z,10.18
2022-10-26T11:29:25.568Z,10.50
2022-10-26T11:32:01.495Z,12.65
2022-10-26T11:34:54.336Z,10.48
2022-10-26T11:37:27.898Z,7.13
2022-10-26T11:40:23.131Z,18.10
2022-10-26T11:43:01.828Z,9.23
2022-10-26T11:45:32.801Z,7.50
2022-10-26T11:48:31.851Z,8.52
2022-10-26T11:51:00.035Z,13.90
2022-10-26T11:53:34.117Z,9.25
2022-10-26T11:56:03.571Z,4.80
2022-10-26T11:58:32.499Z,10.15
2022-10-26T12:01:09.653Z,7.05
2022-10-26T12:03:50.976Z,6.63
2022-10-26T12:06:24.893Z,5.37
2022-10-26T12:09:02.305Z,6.70
2022-10-26T12:11:31.753Z,3.75
2022-10-26T12:14:24.367Z,5.78
2022-10-26T12:16:57.039Z,6.68
2022-10-26T12:19:46.313Z,4.88
2022-10-26T12:22:17.237Z,9.20
2022-10-26T12:24:45.559Z,8.45
2022-10-26T12:27:49.205Z,5.70
2022-10-26T12:30:18.784Z,9.50
2022-10-26T12:32:45.332Z,6.97
2022-10-26T12:35:35.121Z,8.02
2022-10-26T12:38:23.666Z,6.63
2022-10-26T12:41:05.300Z,3.65
2022-10-26T12:43:31.962Z,4.32
2022-10-26T12:46:13.677Z,5.30
2022-10-26T12:48:44.552Z,6.20
2022-10-26T12:51:24.697Z,8.57
2022-10-26T12:54:33.387Z,4.10
2022-10-26T12:57:05.730Z,6.53
2022-10-26T12:59:52.936Z,5.07
2022-10-26T13:02:19.705Z,5.53
2022-10-26T13:05:07.821Z,2.75
2022-10-26T13:07:42.614Z,4.57
2022-10-26T13:10:12.161Z,2.17
2022-10-26T13:12:49.238Z,7.57
2022-10-26T13:15:53.253Z,3.67
2022-10-26T13:18:21.954Z,5.75
2022-10-26T13:21:13.686Z,4.43
2022-10-26T13:24:14.056Z,6.95
2022-10-26T13:27:05.322Z,3.90
2022-10-26T13:29:33.366Z,3.13
2022-10-26T13:32:02.868Z,5.63
2022-10-26T13:34:31.889Z,4.75
2022-10-26T13:37:10.283Z,6.85
2022-10-26T13:39:41.490Z,6.45
2022-10-26T13:42:16.372Z,4.63
2022-10-26T13:44:46.169Z,6.38
2022-10-26T13:47:24.018Z,7.85
2022-10-26T13:49:54.651Z,2.55
2022-10-26T13:52:40.045Z,11.18
2022-10-26T13:55:21.634Z,5.97
2022-10-26T13:58:18.553Z,9.35
2022-10-26T14:01:13.182Z,8.00
2022-10-26T14:03:40.968Z,4.55
2022-10-26T14:06:35.968Z,8.15
2022-10-26T14:09:06.631Z,5.97
2022-10-26T14:11:44.441Z,6.15
2022-10-26T14:14:19.804Z,7.53
2022-10-26T14:16:47.548Z,10.27
2022-10-26T14:19:29.041Z,8.73
2022-10-26T14:21:57.572Z,4.80
2022-10-26T14:24:45.564Z,9.45
2022-10-26T14:27:18.237Z,6.45
2022-10-26T14:29:49.976Z,3.70
2022-10-26T14:32:32.029Z,9.27
2022-10-26T14:34:58.613Z,12.30
2022-10-26T14:37:43.190Z,12.50
2022-10-26T14:40:18.453Z,6.85
2022-10-26T14:42:50.776Z,8.23
2022-10-26T14:45:48.083Z,5.85
2022-10-26T14:48:35.665Z,69.70
2022-10-26T14:51:03.905Z,71.72
2022-10-26T14:53:36.928Z,11.35
2022-10-26T14:56:05.299Z,8.18
2022-10-26T14:58:33.947Z,7.28
2022-10-26T15:01:22.263Z,8.75
2022-10-26T15:03:58.115Z,9.93
2022-10-26T15:06:28.490Z,7.60
2022-10-26T15:09:00.765Z,21.10
2022-10-26T15:11:28.752Z,79.10
2022-10-26T15:13:57.316Z,56.65
2022-10-26T15:16:29.834Z,37.22
2022-10-26T15:19:11.564Z,16.50
2022-10-26T15:21:46.289Z,22.83
2022-10-26T15:24:32.112Z,76.15
2022-10-26T15:27:02.023Z,23.58
2022-10-26T15:29:43.180Z,21.83
2022-10-26T15:32:28.777Z,37.13
2022-10-26T15:35:18.146Z,42.40
2022-10-26T15:37:48.543Z,47.53
2022-10-26T15:40:15.698Z,59.03
2022-10-26T15:42:45.186Z,25.85
2022-10-26T15:45:20.370Z,32.78
2022-10-26T15:47:51.706Z,20.45
2022-10-26T15:50:22.739Z,11.82
2022-10-26T15:52:50.267Z,19.60
2022-10-26T15:55:17.613Z,10.38
2022-10-26T15:57:44.527Z,10.23
2022-10-26T16:00:15.853Z,35.03
2022-10-26T16:02:44.261Z,107.18
2022-10-26T16:05:16.195Z,133.07
2022-10-26T16:07:45.312Z,131.55
2022-10-26T16:10:24.891Z,168.90
2022-10-26T16:12:52.543Z,210.18
2022-10-26T16:15:22.373Z,149.20
2022-10-26T16:17:49.916Z,101.00
2022-10-26T16:20:27.717Z,69.93
2022-10-26T16:22:54.627Z,25.45
2022-10-26T16:25:24.176Z,21.27
2022-10-26T16:27:51.631Z,18.48
2022-10-26T16:30:19.827Z,28.85
2022-10-26T16:32:47.301Z,46.72
2022-10-26T16:35:15.651Z,29.30
2022-10-26T16:37:42.499Z,20.30
2022-10-26T16:40:09.688Z,26.42
2022-10-26T16:42:36.455Z,21.63
2022-10-26T16:45:03.581Z,21.55
2022-10-26T16:47:35.506Z,20.50
2022-10-26T16:50:03.824Z,18.45
2022-10-26T16:52:30.530Z,21.05
2022-10-26T16:54:57.079Z,53.42
2022-10-26T16:57:24.039Z,31.30
2022-10-26T16:59:50.736Z,22.92
2022-10-26T17:02:17.859Z,19.42
2022-10-26T17:04:44.612Z,28.60
2022-10-26T17:07:11.204Z,22.65
2022-10-26T17:09:37.967Z,19.42
2022-10-26T17:12:05.269Z,9.80
2022-10-26T17:14:32.638Z,10.50
2022-10-26T17:16:59.164Z,12.68
2022-10-26T17:19:25.855Z,12.93
2022-10-26T17:21:52.353Z,13.65
2022-10-26T17:24:18.971Z,12.70
2022-10-26T17:26:45.593Z,13.60
2022-10-26T17:29:15.627Z,20.48
2022-10-26T17:34:13.331Z,46.05
2022-10-26T17:36:40.170Z,26.80
2022-10-26T17:39:06.739Z,24.48
2022-10-26T17:41:33.334Z,24.83
2022-10-26T17:43:59.823Z,19.55
2022-10-26T17:46:26.956Z,21.83
2022-10-26T17:48:58.729Z,40.33
2022-10-26T17:51:26.973Z,30.05
2022-10-26T17:53:54.361Z,33.08
2022-10-26T17:56:25.886Z,37.42
2022-10-26T17:58:57.965Z,29.33
2022-10-26T18:03:52.357Z,18.42
2022-10-26T18:06:19.997Z,14.88
2022-10-26T18:08:47.068Z,14.35
2022-10-26T18:11:19.118Z,19.08
2022-10-26T18:13:48.282Z,20.08
2022-10-26T18:16:22.258Z,18.65
2022-10-26T18:18:50.273Z,18.58
2022-10-26T18:21:19.385Z,17.63
2022-10-26T18:23:46.727Z,20.10
2022-10-26T18:26:17.397Z,21.27
2022-10-26T18:28:44.991Z,34.40
2022-10-26T18:33:41.289Z,25.75
2022-10-26T18:36:12.783Z,34.38
2022-10-26T18:38:40.451Z,33.00
2022-10-26T18:41:10.274Z,42.83
2022-10-26T18:43:41.610Z,51.40
2022-10-26T18:46:11.457Z,64.67
2022-10-26T18:48:38.773Z,58.72
2022-10-26T18:51:10.817Z,59.42
2022-10-26T18:56:10.166Z,38.45
2022-10-26T18:58:39.619Z,29.00
2022-10-26T19:01:17.852Z,43.80
2022-10-26T19:03:45.802Z,46.88
2022-10-26T19:06:18.052Z,36.25
2022-10-26T19:11:02.888Z,54.50
2022-10-26T19:13:29.480Z,54.92
2022-10-26T19:16:07.219Z,55.50
2022-10-26T19:18:39.417Z,56.78
2022-10-26T19:21:28.175Z,55.50
2022-10-26T19:23:57.514Z,53.45
2022-10-26T19:26:33.411Z,52.00
2022-10-26T19:29:03.621Z,58.67
2022-10-26T19:33:59.777Z,42.58
2022-10-26T19:36:27.278Z,39.60
2022-10-26T19:38:54.674Z,43.95
2022-10-26T19:41:23.414Z,60.65
2022-10-26T19:43:50.403Z,51.45
2022-10-26T19:46:21.035Z,51.45
2022-10-26T19:48:55.119Z,43.05
2022-10-26T19:51:22.722Z,34.85
2022-10-26T19:53:49.566Z,39.42
2022-10-26T19:56:16.863Z,34.25
2022-10-26T19:58:44.478Z,31.30
2022-10-26T20:01:12.923Z,24.27
2022-10-26T20:03:39.641Z,27.77
2022-10-26T20:06:11.195Z,23.83
2022-10-26T20:08:40.353Z,32.85
2022-10-26T20:11:10.293Z,43.67
2022-10-26T20:13:40.661Z,45.10
2022-10-26T20:16:07.990Z,35.15
2022-10-26T20:18:34.926Z,29.95
2022-10-26T20:21:01.572Z,32.40
2022-10-26T20:23:28.198Z,38.75
2022-10-26T20:25:55.597Z,37.78
2022-10-26T20:28:23.780Z,41.00
2022-10-26T20:30:50.342Z,44.53
2022-10-26T20:33:16.952Z,47.50
2022-10-26T20:35:43.590Z,40.33
2022-10-26T20:38:19.524Z,50.50
2022-10-26T20:40:59.392Z,46.38
2022-10-26T20:43:27.519Z,36.75
2022-10-26T20:45:54.671Z,40.40
2022-10-26T20:48:22.940Z,44.30
2022-10-26T20:50:55.757Z,45.92
2022-10-26T20:53:39.869Z,43.45
2022-10-26T20:56:10.629Z,38.35
2022-10-26T20:58:58.334Z,34.13
2022-10-26T21:01:29.175Z,42.38
2022-10-26T21:03:58.245Z,39.03
2022-10-26T21:06:25.733Z,45.25
2022-10-26T21:08:53.939Z,58.83
2022-10-26T21:11:22.403Z,53.53
2022-10-26T21:13:49.823Z,56.13
2022-10-26T21:16:17.279Z,75.22
2022-10-26T21:18:44.022Z,111.80
2022-10-26T21:21:10.698Z,106.63
2022-10-26T21:23:40.018Z,107.25
2022-10-26T21:26:07.778Z,98.80
2022-10-26T21:28:41.378Z,80.95
2022-10-26T21:31:10.481Z,64.10
2022-10-26T21:33:37.237Z,50.25
2022-10-26T21:36:06.023Z,44.95
2022-10-26T21:38:33.676Z,54.42
2022-10-26T21:41:18.591Z,47.25
2022-10-26T21:43:48.208Z,43.10
2022-10-26T21:46:16.107Z,33.65
2022-10-26T21:48:42.836Z,91.60
2022-10-26T21:51:17.855Z,61.58
2022-10-26T21:53:44.883Z,81.95
2022-10-26T21:56:14.405Z,121.95
2022-10-26T21:58:41.092Z,81.85
2022-10-26T22:01:08.729Z,84.70
2022-10-26T22:03:36.354Z,83.82
2022-10-26T22:06:03.592Z,79.93
2022-10-26T22:08:30.762Z,80.35
2022-10-26T22:10:58.209Z,89.55
2022-10-26T22:13:25.468Z,73.88
2022-10-26T22:16:06.458Z,74.57
2022-10-26T22:18:42.723Z,62.42
2022-10-26T22:21:10.217Z,74.70
2022-10-26T22:23:38.905Z,72.90
2022-10-26T22:26:17.144Z,79.40
2022-10-26T22:28:45.193Z,71.70
2022-10-26T22:31:23.221Z,72.38
2022-10-26T22:33:54.779Z,80.05
2022-10-26T22:36:22.444Z,74.72
2022-10-26T22:38:50.306Z,72.25
2022-10-26T22:41:18.162Z,67.15
2022-10-26T22:43:44.783Z,63.88
2022-10-26T22:46:14.334Z,58.60
2022-10-26T22:48:41.400Z,67.15
2022-10-26T22:51:13.877Z,64.63
2022-10-26T22:53:40.823Z,62.15
2022-10-26T22:56:09.182Z,70.72
2022-10-26T22:58:36.937Z,68.53
2022-10-26T23:01:11.046Z,64.45
2022-10-26T23:03:38.111Z,60.17
2022-10-26T23:06:08.286Z,53.00
2022-10-26T23:08:35.233Z,53.78
2022-10-26T23:11:04.373Z,84.05
2022-10-26T23:13:31.246Z,85.38
2022-10-26T23:16:14.685Z,78.82
2022-10-26T23:18:41.299Z,93.00
2022-10-26T23:21:09.808Z,87.93
2022-10-26T23:23:37.070Z,73.78
2022-10-26T23:26:09.233Z,80.07
2022-10-26T23:28:36.725Z,90.60
2022-10-26T23:31:03.447Z,91.35
2022-10-26T23:33:30.539Z,101.22
2022-10-26T23:35:57.460Z,91.35
2022-10-26T23:38:25.186Z,88.72
2022-10-26T23:40:56.755Z,92.20
2022-10-26T23:43:24.211Z,84.00
2022-10-26T23:45:50.960Z,61.80
2022-10-26T23:48:19.166Z,58.30
2022-10-26T23:50:48.643Z,66.32
2022-10-26T23:53:17.891Z,53.75
2022-10-26T23:55:45.268Z,58.88
2022-10-26T23:58:12.142Z,56.20
